sensor_id;sensor_type;location;lat;lon;timestamp;temperature;humidity
18101;DHT22;9177;49.156;8.142;2023-04-01T00:00:24;19.90;94.20
18101;DHT22;9177;49.156;8.142;2023-04-01T00:02:50;19.90;94.10
18101;DHT22;9177;49.156;8.142;2023-04-01T00:05:17;19.90;94.10
18101;DHT22;9177;49.156;8.142;2023-04-01T00:07:44;19.90;94.10
18101;DHT22;9177;49.156;8.142;2023-04-01T00:10:12;19.90;94.10
18101;DHT22;9177;49.156;8.142;2023-04-01T00:12:41;19.90;94.10
18101;DHT22;9177;49.156;8.142;2023-04-01T00:15:10;19.80;94.00
18101;DHT22;9177;49.156;8.142;2023-04-01T00:17:37;19.80;94.00
18101;DHT22;9177;49.156;8.142;2023-04-01T00:20:05;19.80;94.00
18101;DHT22;9177;49.156;8.142;2023-04-01T00:22:33;19.80;94.40
18101;DHT22;9177;49.156;8.142;2023-04-01T00:25:00;19.80;94.00
18101;DHT22;9177;49.156;8.142;2023-04-01T00:27:27;19.80;94.00
18101;DHT22;9177;49.156;8.142;2023-04-01T00:29:56;19.80;94.00
18101;DHT22;9177;49.156;8.142;2023-04-01T00:32:22;19.80;94.00
18101;DHT22;9177;49.156;8.142;2023-04-01T00:34:50;19.80;93.90
18101;DHT22;9177;49.156;8.142;2023-04-01T00:37:17;19.80;94.00
18101;DHT22;9177;49.156;8.142;2023-04-01T00:39:43;19.80;94.00
18101;DHT22;9177;49.156;8.142;2023-04-01T00:42:11;19.80;93.90
18101;DHT22;9177;49.156;8.142;2023-04-01T00:44:39;19.80;93.90
18101;DHT22;9177;49.156;8.142;2023-04-01T00:47:08;19.80;93.90
18101;DHT22;9177;49.156;8.142;2023-04-01T00:49:37;19.80;93.90
18101;DHT22;9177;49.156;8.142;2023-04-01T00:52:07;19.70;93.80
18101;DHT22;9177;49.156;8.142;2023-04-01T00:54:36;19.70;93.80
18101;DHT22;9177;49.156;8.142;2023-04-01T00:57:06;19.70;93.80
18101;DHT22;9177;49.156;8.142;2023-04-01T00:59:35;19.70;93.80
18101;DHT22;9177;49.156;8.142;2023-04-01T01:02:06;19.70;93.80
18101;DHT22;9177;49.156;8.142;2023-04-01T01:04:35;19.70;93.80
18101;DHT22;9177;49.156;8.142;2023-04-01T01:07:10;19.70;93.80
18101;DHT22;9177;49.156;8.142;2023-04-01T01:09:45;19.70;93.80
18101;DHT22;9177;49.156;8.142;2023-04-01T01:12:19;19.70;93.70
18101;DHT22;9177;49.156;8.142;2023-04-01T01:14:53;19.70;93.70
18101;DHT22;9177;49.156;8.142;2023-04-01T01:17:29;19.70;93.70
18101;DHT22;9177;49.156;8.142;2023-04-01T01:26:09;19.70;93.70
18101;DHT22;9177;49.156;8.142;2023-04-01T01:28:51;19.70;93.70
18101;DHT22;9177;49.156;8.142;2023-04-01T01:31:25;19.70;93.70
18101;DHT22;9177;49.156;8.142;2023-04-01T01:34:06;19.70;93.70
18101;DHT22;9177;49.156;8.142;2023-04-01T01:36:40;19.70;93.70
18101;DHT22;9177;49.156;8.142;2023-04-01T01:39:12;19.70;94.00
18101;DHT22;9177;49.156;8.142;2023-04-01T01:41:45;19.70;93.70
18101;DHT22;9177;49.156;8.142;2023-04-01T01:44:15;19.70;93.70
18101;DHT22;9177;49.156;8.142;2023-04-01T01:46:43;19.70;93.70
18101;DHT22;9177;49.156;8.142;2023-04-01T01:49:13;19.70;93.60
18101;DHT22;9177;49.156;8.142;2023-04-01T01:51:43;19.70;93.70
18101;DHT22;9177;49.156;8.142;2023-04-01T01:54:12;19.60;93.60
18101;DHT22;9177;49.156;8.142;2023-04-01T01:56:41;19.60;93.60
18101;DHT22;9177;49.156;8.142;2023-04-01T01:59:11;19.60;93.60
18101;DHT22;9177;49.156;8.142;2023-04-01T02:01:41;19.60;93.60
18101;DHT22;9177;49.156;8.142;2023-04-01T02:04:10;19.60;93.60
18101;DHT22;9177;49.156;8.142;2023-04-01T02:06:41;19.60;93.60
18101;DHT22;9177;49.156;8.142;2023-04-01T02:09:11;19.60;93.60
18101;DHT22;9177;49.156;8.142;2023-04-01T02:11:41;19.60;93.60
18101;DHT22;9177;49.156;8.142;2023-04-01T02:14:11;19.60;93.60
18101;DHT22;9177;49.156;8.142;2023-04-01T02:16:45;19.60;93.60
18101;DHT22;9177;49.156;8.142;2023-04-01T02:19:15;19.60;93.60
18101;DHT22;9177;49.156;8.142;2023-04-01T02:21:49;19.60;93.60
18101;DHT22;9177;49.156;8.142;2023-04-01T02:24:20;19.60;93.60
18101;DHT22;9177;49.156;8.142;2023-04-01T02:26:48;19.60;93.60
18101;DHT22;9177;49.156;8.142;2023-04-01T02:29:21;19.60;93.60
18101;DHT22;9177;49.156;8.142;2023-04-01T02:31:49;19.60;93.60
18101;DHT22;9177;49.156;8.142;2023-04-01T02:34:17;19.60;93.60
18101;DHT22;9177;49.156;8.142;2023-04-01T02:36:44;19.60;93.60
18101;DHT22;9177;49.156;8.142;2023-04-01T02:39:11;19.60;93.60
18101;DHT22;9177;49.156;8.142;2023-04-01T02:41:44;19.60;93.60
18101;DHT22;9177;49.156;8.142;2023-04-01T02:44:13;19.60;93.60
18101;DHT22;9177;49.156;8.142;2023-04-01T02:46:40;19.60;93.60
18101;DHT22;9177;49.156;8.142;2023-04-01T02:49:07;19.60;93.60
18101;DHT22;9177;49.156;8.142;2023-04-01T02:51:34;19.60;93.60
18101;DHT22;9177;49.156;8.142;2023-04-01T02:54:01;19.60;93.60
18101;DHT22;9177;49.156;8.142;2023-04-01T02:56:29;19.60;93.60
18101;DHT22;9177;49.156;8.142;2023-04-01T02:58:57;19.60;93.60
18101;DHT22;9177;49.156;8.142;2023-04-01T03:01:24;19.60;93.50
18101;DHT22;9177;49.156;8.142;2023-04-01T03:03:51;19.60;93.50
18101;DHT22;9177;49.156;8.142;2023-04-01T03:06:17;19.50;93.50
18101;DHT22;9177;49.156;8.142;2023-04-01T03:08:44;19.50;93.50
18101;DHT22;9177;49.156;8.142;2023-04-01T03:11:12;19.60;93.90
18101;DHT22;9177;49.156;8.142;2023-04-01T03:13:39;19.60;93.50
18101;DHT22;9177;49.156;8.142;2023-04-01T03:16:07;19.50;93.50
18101;DHT22;9177;49.156;8.142;2023-04-01T03:18:34;19.60;93.50
18101;DHT22;9177;49.156;8.142;2023-04-01T03:21:13;19.60;93.50
18101;DHT22;9177;49.156;8.142;2023-04-01T03:23:40;19.50;93.60
18101;DHT22;9177;49.156;8.142;2023-04-01T03:26:07;19.50;93.50
18101;DHT22;9177;49.156;8.142;2023-04-01T03:28:34;19.50;93.50
18101;DHT22;9177;49.156;8.142;2023-04-01T03:31:01;19.50;93.40
18101;DHT22;9177;49.156;8.142;2023-04-01T03:33:29;19.50;93.40
18101;DHT22;9177;49.156;8.142;2023-04-01T03:35:56;19.50;93.40
18101;DHT22;9177;49.156;8.142;2023-04-01T03:38:22;19.50;93.40
18101;DHT22;9177;49.156;8.142;2023-04-01T03:40:49;19.50;93.50
18101;DHT22;9177;49.156;8.142;2023-04-01T03:43:16;19.50;93.40
18101;DHT22;9177;49.156;8.142;2023-04-01T03:45:45;19.50;93.40
18101;DHT22;9177;49.156;8.142;2023-04-01T03:48:12;19.50;93.40
18101;DHT22;9177;49.156;8.142;2023-04-01T03:50:40;19.50;93.40
18101;DHT22;9177;49.156;8.142;2023-04-01T03:53:08;19.50;93.40
18101;DHT22;9177;49.156;8.142;2023-04-01T03:55:35;19.50;93.40
18101;DHT22;9177;49.156;8.142;2023-04-01T03:58:03;19.50;93.40
18101;DHT22;9177;49.156;8.142;2023-04-01T04:00:30;19.50;93.40
18101;DHT22;9177;49.156;8.142;2023-04-01T04:02:57;19.40;93.40
18101;DHT22;9177;49.156;8.142;2023-04-01T04:05:25;19.40;93.40
18101;DHT22;9177;49.156;8.142;2023-04-01T04:07:53;19.40;93.50
18101;DHT22;9177;49.156;8.142;2023-04-01T04:10:20;19.40;93.50
18101;DHT22;9177;49.156;8.142;2023-04-01T04:12:48;19.40;93.50
18101;DHT22;9177;49.156;8.142;2023-04-01T04:15:16;19.40;93.50
18101;DHT22;9177;49.156;8.142;2023-04-01T04:17:44;19.40;93.50
18101;DHT22;9177;49.156;8.142;2023-04-01T04:20:10;19.50;93.50
18101;DHT22;9177;49.156;8.142;2023-04-01T04:22:37;19.40;93.50
18101;DHT22;9177;49.156;8.142;2023-04-01T04:25:06;19.40;93.50
18101;DHT22;9177;49.156;8.142;2023-04-01T04:27:33;19.40;93.60
18101;DHT22;9177;49.156;8.142;2023-04-01T04:30:01;19.40;93.60
18101;DHT22;9177;49.156;8.142;2023-04-01T04:32:27;19.40;93.60
18101;DHT22;9177;49.156;8.142;2023-04-01T04:34:54;19.40;93.60
18101;DHT22;9177;49.156;8.142;2023-04-01T04:37:21;19.40;93.60
18101;DHT22;9177;49.156;8.142;2023-04-01T04:39:48;19.40;93.60
18101;DHT22;9177;49.156;8.142;2023-04-01T04:42:16;19.40;93.60
18101;DHT22;9177;49.156;8.142;2023-04-01T04:44:43;19.40;93.60
18101;DHT22;9177;49.156;8.142;2023-04-01T04:47:10;19.40;93.60
18101;DHT22;9177;49.156;8.142;2023-04-01T04:49:36;19.40;93.60
18101;DHT22;9177;49.156;8.142;2023-04-01T04:52:03;19.40;93.60
18101;DHT22;9177;49.156;8.142;2023-04-01T04:54:30;19.40;93.60
18101;DHT22;9177;49.156;8.142;2023-04-01T04:56:57;19.40;93.60
18101;DHT22;9177;49.156;8.142;2023-04-01T04:59:25;19.40;93.60
18101;DHT22;9177;49.156;8.142;2023-04-01T05:01:52;19.40;93.60
18101;DHT22;9177;49.156;8.142;2023-04-01T05:04:19;19.40;93.60
18101;DHT22;9177;49.156;8.142;2023-04-01T05:06:45;19.40;93.60
18101;DHT22;9177;49.156;8.142;2023-04-01T05:09:12;19.30;93.60
18101;DHT22;9177;49.156;8.142;2023-04-01T05:11:39;19.40;93.60
18101;DHT22;9177;49.156;8.142;2023-04-01T05:14:12;19.40;93.60
18101;DHT22;9177;49.156;8.142;2023-04-01T05:16:40;19.30;93.60
18101;DHT22;9177;49.156;8.142;2023-04-01T05:19:07;19.30;93.60
18101;DHT22;9177;49.156;8.142;2023-04-01T05:21:33;19.30;93.60
18101;DHT22;9177;49.156;8.142;2023-04-01T05:24:02;19.30;93.60
18101;DHT22;9177;49.156;8.142;2023-04-01T05:26:29;19.30;93.60
18101;DHT22;9177;49.156;8.142;2023-04-01T05:28:56;19.30;93.60
18101;DHT22;9177;49.156;8.142;2023-04-01T05:31:23;19.30;93.60
18101;DHT22;9177;49.156;8.142;2023-04-01T05:33:52;19.30;93.60
18101;DHT22;9177;49.156;8.142;2023-04-01T05:36:19;19.30;93.60
18101;DHT22;9177;49.156;8.142;2023-04-01T05:38:46;19.30;93.70
18101;DHT22;9177;49.156;8.142;2023-04-01T05:41:14;19.30;93.70
18101;DHT22;9177;49.156;8.142;2023-04-01T05:43:42;19.30;93.70
18101;DHT22;9177;49.156;8.142;2023-04-01T05:46:09;19.30;93.60
18101;DHT22;9177;49.156;8.142;2023-04-01T05:48:36;19.30;93.70
18101;DHT22;9177;49.156;8.142;2023-04-01T05:51:04;19.30;93.60
18101;DHT22;9177;49.156;8.142;2023-04-01T05:53:31;19.30;93.70
18101;DHT22;9177;49.156;8.142;2023-04-01T05:56:02;19.30;93.70
18101;DHT22;9177;49.156;8.142;2023-04-01T05:58:29;19.30;93.70
18101;DHT22;9177;49.156;8.142;2023-04-01T06:01:00;19.30;93.70
18101;DHT22;9177;49.156;8.142;2023-04-01T06:03:27;19.30;93.70
18101;DHT22;9177;49.156;8.142;2023-04-01T06:05:54;19.30;93.70
18101;DHT22;9177;49.156;8.142;2023-04-01T06:08:23;19.30;93.70
18101;DHT22;9177;49.156;8.142;2023-04-01T06:11:02;19.30;93.60
18101;DHT22;9177;49.156;8.142;2023-04-01T06:13:40;19.30;93.70
18101;DHT22;9177;49.156;8.142;2023-04-01T06:16:20;19.30;93.70
18101;DHT22;9177;49.156;8.142;2023-04-01T06:18:58;19.30;93.70
18101;DHT22;9177;49.156;8.142;2023-04-01T06:21:42;19.30;93.70
18101;DHT22;9177;49.156;8.142;2023-04-01T06:24:26;19.30;93.70
18101;DHT22;9177;49.156;8.142;2023-04-01T06:27:01;19.30;93.70
18101;DHT22;9177;49.156;8.142;2023-04-01T06:29:47;19.30;93.70
18101;DHT22;9177;49.156;8.142;2023-04-01T06:32:31;19.30;93.70
18101;DHT22;9177;49.156;8.142;2023-04-01T06:35:13;19.30;93.70
18101;DHT22;9177;49.156;8.142;2023-04-01T06:43:43;19.30;93.80
18101;DHT22;9177;49.156;8.142;2023-04-01T06:46:18;19.30;93.70
18101;DHT22;9177;49.156;8.142;2023-04-01T06:48:59;19.30;93.70
18101;DHT22;9177;49.156;8.142;2023-04-01T06:51:37;19.30;93.70
18101;DHT22;9177;49.156;8.142;2023-04-01T06:54:10;19.30;93.80
18101;DHT22;9177;49.156;8.142;2023-04-01T06:56:42;19.30;93.70
18101;DHT22;9177;49.156;8.142;2023-04-01T06:59:17;19.30;93.70
18101;DHT22;9177;49.156;8.142;2023-04-01T07:01:47;19.30;93.80
18101;DHT22;9177;49.156;8.142;2023-04-01T07:04:19;19.30;93.80
18101;DHT22;9177;49.156;8.142;2023-04-01T07:06:49;19.30;93.80
18101;DHT22;9177;49.156;8.142;2023-04-01T07:09:19;19.30;93.80
18101;DHT22;9177;49.156;8.142;2023-04-01T07:11:49;19.30;93.80
18101;DHT22;9177;49.156;8.142;2023-04-01T07:14:20;19.30;93.90
18101;DHT22;9177;49.156;8.142;2023-04-01T07:16:53;19.30;93.90
18101;DHT22;9177;49.156;8.142;2023-04-01T07:19:28;19.30;93.90
18101;DHT22;9177;49.156;8.142;2023-04-01T07:21:58;19.30;94.30
18101;DHT22;9177;49.156;8.142;2023-04-01T07:24:29;19.30;93.90
18101;DHT22;9177;49.156;8.142;2023-04-01T07:26:59;19.30;93.90
18101;DHT22;9177;49.156;8.142;2023-04-01T07:29:27;19.30;93.90
18101;DHT22;9177;49.156;8.142;2023-04-01T07:32:07;19.30;93.90
18101;DHT22;9177;49.156;8.142;2023-04-01T07:34:41;19.30;93.90
18101;DHT22;9177;49.156;8.142;2023-04-01T07:37:14;19.30;94.00
18101;DHT22;9177;49.156;8.142;2023-04-01T07:39:48;19.30;94.00
18101;DHT22;9177;49.156;8.142;2023-04-01T07:42:25;19.30;94.00
18101;DHT22;9177;49.156;8.142;2023-04-01T07:45:03;19.30;94.00
18101;DHT22;9177;49.156;8.142;2023-04-01T07:47:41;19.30;94.00
18101;DHT22;9177;49.156;8.142;2023-04-01T07:50:19;19.30;94.00
18101;DHT22;9177;49.156;8.142;2023-04-01T07:52:57;19.30;94.10
18101;DHT22;9177;49.156;8.142;2023-04-01T07:55:30;19.30;94.10
18101;DHT22;9177;49.156;8.142;2023-04-01T07:58:03;19.30;94.10
18101;DHT22;9177;49.156;8.142;2023-04-01T08:00:39;19.30;94.10
18101;DHT22;9177;49.156;8.142;2023-04-01T08:03:29;19.30;94.10
18101;DHT22;9177;49.156;8.142;2023-04-01T08:06:01;19.30;94.50
18101;DHT22;9177;49.156;8.142;2023-04-01T08:08:40;19.30;94.20
18101;DHT22;9177;49.156;8.142;2023-04-01T08:11:14;19.30;94.20
18101;DHT22;9177;49.156;8.142;2023-04-01T08:13:53;19.20;94.20
18101;DHT22;9177;49.156;8.142;2023-04-01T08:16:26;19.20;94.20
18101;DHT22;9177;49.156;8.142;2023-04-01T08:19:02;19.30;94.30
18101;DHT22;9177;49.156;8.142;2023-04-01T08:21:41;19.20;94.30
18101;DHT22;9177;49.156;8.142;2023-04-01T08:24:16;19.20;94.30
18101;DHT22;9177;49.156;8.142;2023-04-01T08:26:48;19.30;94.20
18101;DHT22;9177;49.156;8.142;2023-04-01T08:29:21;19.50;94.10
18101;DHT22;9177;49.156;8.142;2023-04-01T08:31:52;19.60;93.90
18101;DHT22;9177;49.156;8.142;2023-04-01T08:34:25;19.90;93.80
18101;DHT22;9177;49.156;8.142;2023-04-01T08:36:56;20.10;93.50
18101;DHT22;9177;49.156;8.142;2023-04-01T08:39:29;20.40;93.20
18101;DHT22;9177;49.156;8.142;2023-04-01T08:42:26;20.70;92.90
18101;DHT22;9177;49.156;8.142;2023-04-01T08:45:17;21.00;92.60
18101;DHT22;9177;49.156;8.142;2023-04-01T08:48:06;21.20;92.40
18101;DHT22;9177;49.156;8.142;2023-04-01T08:54:00;21.50;92.10
18101;DHT22;9177;49.156;8.142;2023-04-01T08:56:34;21.60;92.00
18101;DHT22;9177;49.156;8.142;2023-04-01T08:59:19;21.70;92.00
18101;DHT22;9177;49.156;8.142;2023-04-01T09:02:12;21.70;91.90
18101;DHT22;9177;49.156;8.142;2023-04-01T09:05:01;21.60;92.00
18101;DHT22;9177;49.156;8.142;2023-04-01T09:07:40;21.60;92.10
18101;DHT22;9177;49.156;8.142;2023-04-01T09:10:28;21.40;92.20
18101;DHT22;9177;49.156;8.142;2023-04-01T09:13:31;21.30;92.30
18101;DHT22;9177;49.156;8.142;2023-04-01T09:16:16;21.20;92.50
18101;DHT22;9177;49.156;8.142;2023-04-01T09:19:01;21.10;92.60
18101;DHT22;9177;49.156;8.142;2023-04-01T09:24:40;20.90;92.90
18101;DHT22;9177;49.156;8.142;2023-04-01T09:27:19;20.80;93.00
18101;DHT22;9177;49.156;8.142;2023-04-01T09:30:20;20.80;93.20
18101;DHT22;9177;49.156;8.142;2023-04-01T09:33:11;20.70;93.30
18101;DHT22;9177;49.156;8.142;2023-04-01T09:35:46;20.60;93.40
18101;DHT22;9177;49.156;8.142;2023-04-01T09:38:22;20.50;93.50
18101;DHT22;9177;49.156;8.142;2023-04-01T09:40:56;20.50;93.60
18101;DHT22;9177;49.156;8.142;2023-04-01T09:43:26;20.40;93.60
18101;DHT22;9177;49.156;8.142;2023-04-01T09:46:16;20.40;93.70
18101;DHT22;9177;49.156;8.142;2023-04-01T09:49:08;20.40;93.80
18101;DHT22;9177;49.156;8.142;2023-04-01T09:51:47;20.30;93.90
18101;DHT22;9177;49.156;8.142;2023-04-01T09:54:27;20.30;94.00
18101;DHT22;9177;49.156;8.142;2023-04-01T09:57:27;20.20;94.00
18101;DHT22;9177;49.156;8.142;2023-04-01T10:00:15;20.20;94.10
18101;DHT22;9177;49.156;8.142;2023-04-01T10:06:13;20.20;94.20
18101;DHT22;9177;49.156;8.142;2023-04-01T10:09:11;20.10;94.20
18101;DHT22;9177;49.156;8.142;2023-04-01T10:12:17;20.10;94.30
18101;DHT22;9177;49.156;8.142;2023-04-01T10:15:15;20.20;94.30
18101;DHT22;9177;49.156;8.142;2023-04-01T10:18:11;20.20;94.40
18101;DHT22;9177;49.156;8.142;2023-04-01T10:21:05;20.20;94.30
18101;DHT22;9177;49.156;8.142;2023-04-01T10:26:52;20.30;94.30
18101;DHT22;9177;49.156;8.142;2023-04-01T10:32:49;20.30;94.40
18101;DHT22;9177;49.156;8.142;2023-04-01T10:38:52;20.30;94.40
18101;DHT22;9177;49.156;8.142;2023-04-01T10:41:38;20.30;94.40
18101;DHT22;9177;49.156;8.142;2023-04-01T10:44:50;20.20;94.40
18101;DHT22;9177;49.156;8.142;2023-04-01T10:47:54;20.20;94.50
18101;DHT22;9177;49.156;8.142;2023-04-01T10:51:00;20.20;94.50
18101;DHT22;9177;49.156;8.142;2023-04-01T10:53:40;20.20;94.60
18101;DHT22;9177;49.156;8.142;2023-04-01T10:56:34;20.20;95.80
18101;DHT22;9177;49.156;8.142;2023-04-01T10:59:25;20.40;96.40
18101;DHT22;9177;49.156;8.142;2023-04-01T11:02:27;20.40;96.30
18101;DHT22;9177;49.156;8.142;2023-04-01T11:18:11;20.50;96.60
18101;DHT22;9177;49.156;8.142;2023-04-01T11:23:54;20.50;96.60
18101;DHT22;9177;49.156;8.142;2023-04-01T11:26:45;20.40;96.70
18101;DHT22;9177;49.156;8.142;2023-04-01T11:29:48;20.50;96.50
18101;DHT22;9177;49.156;8.142;2023-04-01T11:32:29;20.50;96.80
18101;DHT22;9177;49.156;8.142;2023-04-01T11:38:07;20.50;96.80
18101;DHT22;9177;49.156;8.142;2023-04-01T11:40:43;20.60;96.40
18101;DHT22;9177;49.156;8.142;2023-04-01T11:43:16;20.50;96.20
18101;DHT22;9177;49.156;8.142;2023-04-01T11:45:50;20.40;96.30
18101;DHT22;9177;49.156;8.142;2023-04-01T11:48:32;20.40;96.30
18101;DHT22;9177;49.156;8.142;2023-04-01T11:51:26;20.40;96.50
18101;DHT22;9177;49.156;8.142;2023-04-01T11:54:03;20.50;96.50
18101;DHT22;9177;49.156;8.142;2023-04-01T11:56:47;20.50;96.40
18101;DHT22;9177;49.156;8.142;2023-04-01T12:02:25;20.40;96.60
18101;DHT22;9177;49.156;8.142;2023-04-01T12:08:02;20.40;96.40
18101;DHT22;9177;49.156;8.142;2023-04-01T12:10:39;20.40;96.30
18101;DHT22;9177;49.156;8.142;2023-04-01T12:13:15;20.40;96.30
18101;DHT22;9177;49.156;8.142;2023-04-01T12:16:04;20.40;96.30
18101;DHT22;9177;49.156;8.142;2023-04-01T12:18:39;20.30;96.20
18101;DHT22;9177;49.156;8.142;2023-04-01T12:21:17;20.30;96.20
18101;DHT22;9177;49.156;8.142;2023-04-01T12:24:17;20.30;96.30
18101;DHT22;9177;49.156;8.142;2023-04-01T12:27:13;20.30;96.20
18101;DHT22;9177;49.156;8.142;2023-04-01T12:30:04;20.30;96.20
18101;DHT22;9177;49.156;8.142;2023-04-01T12:32:40;20.30;96.50
18101;DHT22;9177;49.156;8.142;2023-04-01T12:35:20;20.30;96.40
18101;DHT22;9177;49.156;8.142;2023-04-01T12:37:58;20.30;96.30
18101;DHT22;9177;49.156;8.142;2023-04-01T12:40:47;20.00;95.90
18101;DHT22;9177;49.156;8.142;2023-04-01T12:46:22;17.70;99.60
18101;DHT22;9177;49.156;8.142;2023-04-01T12:49:21;17.50;99.00
18101;DHT22;9177;49.156;8.142;2023-04-01T12:52:05;18.20;98.90
18101;DHT22;9177;49.156;8.142;2023-04-01T12:58:05;16.00;99.90
18101;DHT22;9177;49.156;8.142;2023-04-01T13:00:55;17.90;99.90
18101;DHT22;9177;49.156;8.142;2023-04-01T13:03:44;19.20;97.70
18101;DHT22;9177;49.156;8.142;2023-04-01T13:06:27;19.70;96.70
18101;DHT22;9177;49.156;8.142;2023-04-01T13:09:06;20.00;96.60
18101;DHT22;9177;49.156;8.142;2023-04-01T13:11:53;20.10;96.60
18101;DHT22;9177;49.156;8.142;2023-04-01T13:14:50;20.30;96.40
18101;DHT22;9177;49.156;8.142;2023-04-01T13:17:25;20.40;96.50
18101;DHT22;9177;49.156;8.142;2023-04-01T13:20:01;20.50;96.30
18101;DHT22;9177;49.156;8.142;2023-04-01T13:22:41;20.60;96.20
18101;DHT22;9177;49.156;8.142;2023-04-01T13:25:22;20.70;96.10
18101;DHT22;9177;49.156;8.142;2023-04-01T13:27:56;20.70;96.00
18101;DHT22;9177;49.156;8.142;2023-04-01T13:30:29;20.80;95.90
18101;DHT22;9177;49.156;8.142;2023-04-01T13:33:02;20.80;95.90
18101;DHT22;9177;49.156;8.142;2023-04-01T13:35:38;20.80;95.90
18101;DHT22;9177;49.156;8.142;2023-04-01T13:38:31;20.80;95.90
18101;DHT22;9177;49.156;8.142;2023-04-01T13:41:13;20.80;96.50
18101;DHT22;9177;49.156;8.142;2023-04-01T13:43:49;20.90;96.50
18101;DHT22;9177;49.156;8.142;2023-04-01T13:46:44;20.90;96.50
18101;DHT22;9177;49.156;8.142;2023-04-01T13:49:53;20.90;96.60
18101;DHT22;9177;49.156;8.142;2023-04-01T13:52:47;20.90;96.90
18101;DHT22;9177;49.156;8.142;2023-04-01T13:55:45;20.90;96.70
18101;DHT22;9177;49.156;8.142;2023-04-01T13:58:40;20.90;96.70
18101;DHT22;9177;49.156;8.142;2023-04-01T14:01:15;20.90;96.80
18101;DHT22;9177;49.156;8.142;2023-04-01T14:04:26;20.90;96.90
18101;DHT22;9177;49.156;8.142;2023-04-01T14:07:00;20.90;96.70
18101;DHT22;9177;49.156;8.142;2023-04-01T14:09:50;20.90;96.70
18101;DHT22;9177;49.156;8.142;2023-04-01T14:12:29;20.90;96.70
18101;DHT22;9177;49.156;8.142;2023-04-01T14:15:16;20.90;96.70
18101;DHT22;9177;49.156;8.142;2023-04-01T14:17:58;20.80;96.70
18101;DHT22;9177;49.156;8.142;2023-04-01T14:20:37;20.80;96.80
18101;DHT22;9177;49.156;8.142;2023-04-01T14:23:35;20.80;96.70
18101;DHT22;9177;49.156;8.142;2023-04-01T14:26:22;20.80;96.70
18101;DHT22;9177;49.156;8.142;2023-04-01T14:28:59;20.80;96.80
18101;DHT22;9177;49.156;8.142;2023-04-01T14:34:38;20.90;96.70
18101;DHT22;9177;49.156;8.142;2023-04-01T14:37:29;20.80;96.80
18101;DHT22;9177;49.156;8.142;2023-04-01T14:40:20;20.80;96.90
18101;DHT22;9177;49.156;8.142;2023-04-01T14:42:59;20.80;96.90
18101;DHT22;9177;49.156;8.142;2023-04-01T14:45:51;20.80;97.10
18101;DHT22;9177;49.156;8.142;2023-04-01T14:48:28;20.80;96.80
18101;DHT22;9177;49.156;8.142;2023-04-01T14:51:04;20.80;96.90
18101;DHT22;9177;49.156;8.142;2023-04-01T14:53:38;20.80;97.00
18101;DHT22;9177;49.156;8.142;2023-04-01T14:56:11;20.80;97.10
18101;DHT22;9177;49.156;8.142;2023-04-01T14:58:45;20.80;97.10
18101;DHT22;9177;49.156;8.142;2023-04-01T15:01:35;20.80;97.10
18101;DHT22;9177;49.156;8.142;2023-04-01T15:04:27;20.80;97.00
18101;DHT22;9177;49.156;8.142;2023-04-01T15:09:59;20.80;97.20
18101;DHT22;9177;49.156;8.142;2023-04-01T15:12:32;20.80;97.30
18101;DHT22;9177;49.156;8.142;2023-04-01T15:15:25;20.80;97.30
18101;DHT22;9177;49.156;8.142;2023-04-01T15:18:02;20.90;97.10
18101;DHT22;9177;49.156;8.142;2023-04-01T15:20:45;21.00;97.10
18101;DHT22;9177;49.156;8.142;2023-04-01T15:23:27;21.00;96.90
18101;DHT22;9177;49.156;8.142;2023-04-01T15:26:33;21.00;96.80
18101;DHT22;9177;49.156;8.142;2023-04-01T15:29:17;21.10;96.80
18101;DHT22;9177;49.156;8.142;2023-04-01T15:31:50;21.20;96.70
18101;DHT22;9177;49.156;8.142;2023-04-01T15:34:32;21.20;96.60
18101;DHT22;9177;49.156;8.142;2023-04-01T15:37:07;21.20;96.70
18101;DHT22;9177;49.156;8.142;2023-04-01T15:39:49;21.20;96.80
18101;DHT22;9177;49.156;8.142;2023-04-01T15:42:49;21.20;96.70
18101;DHT22;9177;49.156;8.142;2023-04-01T15:45:36;21.20;96.60
18101;DHT22;9177;49.156;8.142;2023-04-01T15:48:13;21.20;96.60
18101;DHT22;9177;49.156;8.142;2023-04-01T15:50:54;21.20;96.60
18101;DHT22;9177;49.156;8.142;2023-04-01T15:53:44;21.20;96.70
18101;DHT22;9177;49.156;8.142;2023-04-01T15:56:23;21.20;96.70
18101;DHT22;9177;49.156;8.142;2023-04-01T15:59:04;21.20;96.50
18101;DHT22;9177;49.156;8.142;2023-04-01T16:01:39;21.30;96.50
18101;DHT22;9177;49.156;8.142;2023-04-01T16:04:32;21.30;96.50
18101;DHT22;9177;49.156;8.142;2023-04-01T16:07:10;21.30;96.50
18101;DHT22;9177;49.156;8.142;2023-04-01T16:10:04;21.30;96.60
18101;DHT22;9177;49.156;8.142;2023-04-01T16:12:50;21.30;96.70
18101;DHT22;9177;49.156;8.142;2023-04-01T16:15:26;21.30;96.50
18101;DHT22;9177;49.156;8.142;2023-04-01T16:18:07;21.30;96.40
18101;DHT22;9177;49.156;8.142;2023-04-01T16:20:44;21.30;96.40
18101;DHT22;9177;49.156;8.142;2023-04-01T16:23:18;21.30;96.40
18101;DHT22;9177;49.156;8.142;2023-04-01T16:25:53;21.30;96.40
18101;DHT22;9177;49.156;8.142;2023-04-01T16:28:28;21.30;96.40
18101;DHT22;9177;49.156;8.142;2023-04-01T16:31:03;21.30;96.40
18101;DHT22;9177;49.156;8.142;2023-04-01T16:33:37;21.40;96.60
18101;DHT22;9177;49.156;8.142;2023-04-01T16:36:13;21.40;96.50
18101;DHT22;9177;49.156;8.142;2023-04-01T16:38:48;21.40;96.40
18101;DHT22;9177;49.156;8.142;2023-04-01T16:41:18;21.40;96.50
18101;DHT22;9177;49.156;8.142;2023-04-01T16:43:49;21.30;96.50
18101;DHT22;9177;49.156;8.142;2023-04-01T16:46:33;21.30;96.50
18101;DHT22;9177;49.156;8.142;2023-04-01T16:49:17;21.20;96.60
18101;DHT22;9177;49.156;8.142;2023-04-01T16:51:53;21.20;96.60
18101;DHT22;9177;49.156;8.142;2023-04-01T16:54:28;21.20;96.50
18101;DHT22;9177;49.156;8.142;2023-04-01T16:57:02;21.20;96.50
18101;DHT22;9177;49.156;8.142;2023-04-01T16:59:35;21.20;96.50
18101;DHT22;9177;49.156;8.142;2023-04-01T17:02:10;21.20;96.50
18101;DHT22;9177;49.156;8.142;2023-04-01T17:04:44;21.20;96.40
18101;DHT22;9177;49.156;8.142;2023-04-01T17:07:21;21.20;96.30
18101;DHT22;9177;49.156;8.142;2023-04-01T17:10:10;21.10;96.30
18101;DHT22;9177;49.156;8.142;2023-04-01T17:12:47;21.10;96.20
18101;DHT22;9177;49.156;8.142;2023-04-01T17:15:21;21.20;96.20
18101;DHT22;9177;49.156;8.142;2023-04-01T17:18:01;21.10;96.00
18101;DHT22;9177;49.156;8.142;2023-04-01T17:20:35;21.10;96.10
18101;DHT22;9177;49.156;8.142;2023-04-01T17:23:13;21.10;96.20
18101;DHT22;9177;49.156;8.142;2023-04-01T17:25:54;21.20;96.20
18101;DHT22;9177;49.156;8.142;2023-04-01T17:28:34;21.10;96.20
18101;DHT22;9177;49.156;8.142;2023-04-01T17:31:10;21.10;96.20
18101;DHT22;9177;49.156;8.142;2023-04-01T17:33:58;21.20;96.60
18101;DHT22;9177;49.156;8.142;2023-04-01T17:36:40;21.20;96.40
18101;DHT22;9177;49.156;8.142;2023-04-01T17:39:28;21.20;96.40
18101;DHT22;9177;49.156;8.142;2023-04-01T17:42:04;21.30;96.50
18101;DHT22;9177;49.156;8.142;2023-04-01T17:44:43;21.40;95.90
18101;DHT22;9177;49.156;8.142;2023-04-01T17:47:29;21.40;95.90
18101;DHT22;9177;49.156;8.142;2023-04-01T17:53:01;21.20;96.00
18101;DHT22;9177;49.156;8.142;2023-04-01T17:55:57;21.10;96.00